This is the latest recevied weather packets stored in our database for station/object N1IJV-10. If no packets are shown the sender has not sent any weather packets the latest 1 day(s).
| Time | Temp. | Humidity | Pressure | Rain* | Wind** | Luminosity | Snow |
|---|---|---|---|---|---|---|---|
| 1778025389 | 12.22° C | 47% | 1007.8 hPa | 0 mm | 0.45 m/s, 71° | 16 W/m² | - |
| 1778025086 | 12.22° C | 50% | 1007.7 hPa | 0 mm | 0.45 m/s, 66° | 23 W/m² | - |
| 1778024777 | 12.22° C | 47% | 1007.9 hPa | 0 mm | 0.45 m/s, 58° | 25 W/m² | - |
| 1778024474 | 12.22° C | 46% | 1007.6 hPa | 0 mm | 0.45 m/s, 70° | 26 W/m² | - |
| 1778024172 | 12.22° C | 49% | 1007.8 hPa | 0 mm | 0 m/s | 28 W/m² | - |
| 1778023869 | 12.22° C | 45% | 1007.8 hPa | 0 mm | 0.45 m/s, 71° | 26 W/m² | - |
| 1778023567 | 12.22° C | 47% | 1008 hPa | 0 mm | 0.89 m/s, 261° | 29 W/m² | - |
| 1778023264 | 12.22° C | 44% | 1008 hPa | 0 mm | 0.45 m/s, 32° | 31 W/m² | - |
| 1778022961 | 12.78° C | 46% | 1008.1 hPa | 0 mm | 0.89 m/s, 28° | 34 W/m² | - |
| 1778022659 | 12.78° C | 43% | 1007.9 hPa | 0 mm | 0.45 m/s, 115° | 50 W/m² | - |
| 1778022356 | 12.78° C | 41% | 1007.8 hPa | 0 mm | 0 m/s | 58 W/m² | - |
| 1778022053 | 12.78° C | 42% | 1008.2 hPa | 0 mm | 1.34 m/s, 353° | 62 W/m² | - |
| 1778021750 | 12.78° C | 48% | 1007.9 hPa | 0 mm | 0.89 m/s, 54° | 55 W/m² | - |
| 1778021445 | 12.78° C | 44% | 1008.1 hPa | 0 mm | 0.45 m/s, 56° | 63 W/m² | - |
| 1778021143 | 12.78° C | 45% | 1008.1 hPa | 0 mm | 1.34 m/s, 264° | 76 W/m² | - |
| 1778020840 | 12.78° C | 44% | 1008.5 hPa | 0 mm | 0.89 m/s, 80° | 92 W/m² | - |
| 1778020537 | 12.78° C | 46% | 1008.2 hPa | 0 mm | 0.45 m/s, 9° | 78 W/m² | - |
| 1778020233 | 12.78° C | 42% | 1008.2 hPa | 0 mm | 0.89 m/s, 55° | 89 W/m² | - |
| 1778019929 | 12.78° C | 42% | 1008.3 hPa | 0 mm | 0.89 m/s, 289° | 105 W/m² | - |
| 1778019626 | 12.78° C | 42% | 1008.3 hPa | 0 mm | 1.34 m/s, 297° | 104 W/m² | - |
| 1778019323 | 13.33° C | 48% | 1008.4 hPa | 0 mm | 0.89 m/s, 260° | 124 W/m² | - |
| 1778019020 | 13.33° C | 43% | 1008.1 hPa | 0 mm | 1.34 m/s, 348° | 164 W/m² | - |
| 1778018717 | 13.33° C | 44% | 1008.3 hPa | 0 mm | 0.45 m/s, 26° | 163 W/m² | - |
| 1778018415 | 12.78° C | 40% | 1008.3 hPa | 0 mm | 0.89 m/s, 277° | 141 W/m² | - |
| 1778018126 | 12.78° C | 42% | 1008.6 hPa | 0 mm | 0.45 m/s, 187° | 124 W/m² | - |
* Rain latest hour (hover to see other rain measurements)
** Current wind speed in m/s (hover to see current wind gust speed)